ADDS METAR Data INFO
IDs: Format: Raw Decoded Include TAF

Data at: 0157 UTC 18 Oct 2017

KJSO 180155Z AUTO 00000KT 10SM CLR 17/03 A3019 RMK AO2 T01790039
KJSO 180135Z AUTO 00000KT 10SM CLR 17/03 A3019 RMK AO2 T01780033
KJSO 180115Z AUTO 00000KT 10SM CLR 17/02 A3019 RMK AO2 T01770029
KJSO 180055Z AUTO 00000KT 10SM CLR 18/02 A3018 RMK AO2 T01910024
KJSO 180035Z AUTO 00000KT 10SM CLR 18/02 A3018 RMK AO2 T01910025
KJSO 180015Z AUTO 00000KT 10SM CLR 18/02 A3017 RMK AO2 T01910025
KJSO 172355Z AUTO 00000KT 10SM CLR 20/02 A3017 RMK AO2 T02020029
KJSO 172335Z AUTO 00000KT 10SM CLR 22/03 A3017 RMK AO2 T02220032
KJSO 172315Z AUTO 00000KT 10SM CLR 22/02 A3017 RMK AO2 T02300030
KJSO 172255Z AUTO 07004KT 10SM CLR 23/02 A3018 RMK AO2 T02360024
KJSO 172235Z AUTO 10003KT 10SM CLR 23/02 A3018 RMK AO2 T02400026
KJSO 172215Z AUTO 00000KT 10SM CLR 23/02 A3018 RMK AO2 T02410020
KJSO 172155Z AUTO 00000KT 10SM CLR 23/02 A3019 RMK AO2 T02410029
KJSO 172135Z AUTO 09005KT 10SM CLR 24/03 A3019 RMK AO2 T02450032
KJSO 172115Z AUTO 00000KT 10SM CLR 23/03 A3019 RMK AO2 T02400031
KJSO 172055Z AUTO 00000KT 10SM CLR 23/03 A3020 RMK AO2 T02400035
KJSO 172035Z AUTO 10005KT 10SM CLR 23/03 A3020 RMK AO2 T02360036
KJSO 172015Z AUTO 00000KT 10SM CLR 23/03 A3021 RMK AO2 T02350040
KJSO 171955Z AUTO 04005KT 10SM CLR 23/03 A3022 RMK AO2 T02320037
KJSO 171935Z AUTO 36005KT 10SM CLR 22/03 A3024 RMK AO2 T02260041
KJSO 171915Z AUTO 09004KT 10SM CLR 22/04 A3025 RMK AO2 T02220043
KJSO 171855Z AUTO 01005KT 10SM CLR 21/04 A3026 RMK AO2 T02140046
KJSO 171835Z AUTO 06003KT 10SM CLR 21/04 A3026 RMK AO2 T02140044
KJSO 171815Z AUTO 10003KT 10SM CLR 21/05 A3028 RMK AO2 T02090052
KJSO 171755Z AUTO 08005KT 10SM CLR 20/05 A3029 RMK AO2 T01990053
KJSO 171735Z AUTO 06007KT 10SM CLR 19/05 A3031 RMK AO2 T01940053
KJSO 171715Z AUTO 00000KT 10SM CLR 18/06 A3032 RMK AO2 T01910059
KJSO 171655Z AUTO 00000KT 10SM CLR 18/05 A3033 RMK AO2 T01810056
KJSO 171635Z AUTO 04006KT 10SM CLR 17/06 A3033 RMK AO2 T01780060
KJSO 171615Z AUTO 08005KT 10SM CLR 17/06 A3034 RMK AO2 T01730062
KJSO 171555Z AUTO 09005KT 10SM CLR 16/06 A3034 RMK AO2 T01650064
KJSO 171535Z AUTO 11004KT 10SM CLR 15/06 A3034 RMK AO2 T01540065
KJSO 171515Z AUTO 07006KT 10SM CLR 15/06 A3034 RMK AO2 T01470063
KJSO 171455Z AUTO 10007KT 10SM CLR 13/06 A3034 RMK AO2 T01400060
KJSO 171435Z AUTO 09006KT 10SM CLR 13/06 A3034 RMK AO2 T01310058
KJSO 171415Z AUTO 07004KT 10SM CLR 12/05 A3033 RMK AO2 T01220056
KJSO 171355Z AUTO 07004KT 10SM CLR 11/06 A3032 RMK AO2 T01160058
KJSO 171335Z AUTO 07004KT 10SM CLR 10/06 A3032 RMK AO2 T01040059
KJSO 171315Z AUTO 05003KT 10SM CLR 09/05 A3031 RMK AO2 T00950056
KJSO 171255Z AUTO 07003KT 10SM CLR 08/05 A3030 RMK AO2 T00900050
KJSO 171235Z AUTO 08003KT 10SM CLR 08/05 A3030 RMK AO2 T00860050
KJSO 171215Z AUTO 08003KT 10SM CLR 08/05 A3029 RMK AO2 T00860050
KJSO 171155Z AUTO 07003KT 10SM CLR 08/05 A3029 RMK AO2 T00870050
KJSO 171135Z AUTO 05003KT 10SM CLR 08/05 A3029 RMK AO2 T00860051
KJSO 171115Z AUTO 00000KT 10SM CLR 09/05 A3029 RMK AO2 T00940052
KJSO 171055Z AUTO 00000KT 10SM CLR 08/05 A3029 RMK AO2 T00910052
KJSO 171035Z AUTO 07003KT 10SM CLR 09/05 A3028 RMK AO2 T00950052
KJSO 171015Z AUTO 07003KT 10SM CLR 10/05 A3029 RMK AO2 T00990051
KJSO 170955Z AUTO 06004KT 10SM CLR 10/05 A3029 RMK AO2 T01000050
KJSO 170935Z AUTO 00000KT 10SM CLR 10/05 A3028 RMK AO2 T00990050
KJSO 170915Z AUTO 06003KT 10SM CLR 10/05 A3029 RMK AO2 T01010050
KJSO 170855Z AUTO 05003KT 10SM CLR 10/05 A3029 RMK AO2 T01010051
KJSO 170835Z AUTO 04003KT 10SM CLR 10/05 A3029 RMK AO2 T01080051
KJSO 170815Z AUTO 00000KT 10SM CLR 11/05 A3029 RMK AO2 T01100051
KJSO 170755Z AUTO 04003KT 10SM CLR 11/05 A3030 RMK AO2 T01140052
KJSO 170735Z AUTO 05003KT 10SM CLR 11/05 A3030 RMK AO2 T01180054
KJSO 170715Z AUTO 05005KT 10SM CLR 12/05 A3029 RMK AO2 T01220055
KJSO 170655Z AUTO 04004KT 10SM CLR 12/05 A3029 RMK AO2 T01250053
KJSO 170635Z AUTO 05003KT 10SM CLR 12/05 A3029 RMK AO2 T01260051
KJSO 170615Z AUTO 05003KT 10SM CLR 12/05 A3029 RMK AO2 T01290052
KJSO 170555Z AUTO 00000KT 10SM CLR 12/05 A3029 RMK AO2 T01250052
KJSO 170535Z AUTO 07003KT 10SM CLR 12/05 A3029 RMK AO2 T01270052
KJSO 170515Z AUTO 05004KT 10SM CLR 12/05 A3029 RMK AO2 T01280053
KJSO 170455Z AUTO 06003KT 10SM CLR 13/05 A3029 RMK AO2 T01330052
KJSO 170435Z AUTO 05003KT 10SM CLR 13/05 A3030 RMK AO2 T01350051
KJSO 170415Z AUTO 03003KT 10SM CLR 13/05 A3030 RMK AO2 T01380050
KJSO 170355Z AUTO 03004KT 10SM CLR 14/05 A3030 RMK AO2 T01430050
KJSO 170335Z AUTO 04004KT 10SM CLR 14/05 A3030 RMK AO2 T01450050
KJSO 170315Z AUTO 03003KT 10SM CLR 15/05 A3030 RMK AO2 T01480049
KJSO 170255Z AUTO 03003KT 10SM CLR 15/05 A3030 RMK AO2 T01520050
KJSO 170235Z AUTO 02003KT 10SM CLR 15/05 A3030 RMK AO2 T01560050
KJSO 170215Z AUTO 03003KT 10SM CLR 16/05 A3030 RMK AO2 T01590048
KJSO 170155Z AUTO 04003KT 10SM CLR 16/05 A3029 RMK AO2 T01620050
KJSO 170135Z AUTO 02004KT 10SM CLR 16/05 A3028 RMK AO2 T01650055
KJSO 170115Z AUTO 02003KT 10SM CLR 17/05 A3028 RMK AO2 T01700055
KJSO 170055Z AUTO 02004KT 10SM CLR 17/05 A3027 RMK AO2 T01730055
KJSO 170035Z AUTO 01003KT 10SM CLR 17/05 A3027 RMK AO2 T01800053
KJSO 170015Z AUTO 02003KT 10SM CLR 18/05 A3027 RMK AO2 T01840052
KJSO 162355Z AUTO 01003KT 10SM CLR 18/05 A3026 RMK AO2 T01910047
KJSO 162335Z AUTO 01004KT 10SM CLR 20/04 A3026 RMK AO2 T02010042
KJSO 162315Z AUTO 02007KT 10SM CLR 21/03 A3025 RMK AO2 T02090039
KJSO 162255Z AUTO 01006KT 10SM CLR 21/03 A3025 RMK AO2 T02150039
KJSO 162235Z AUTO 02006KT 10SM CLR 21/03 A3025 RMK AO2 T02180038
KJSO 162215Z AUTO 02006KT 10SM CLR 22/03 A3025 RMK AO2 T02220039
KJSO 162155Z AUTO 03007KT 10SM CLR 22/03 A3026 RMK AO2 T02230039
KJSO 162135Z AUTO 01008KT 330V030 10SM CLR 22/03 A3026 RMK AO2 T02230037
KJSO 162115Z AUTO 03008KT 10SM CLR 22/03 A3026 RMK AO2 T02250041
KJSO 162055Z AUTO 35005G14KT 10SM CLR 22/03 A3026 RMK AO2 T02230039
KJSO 162035Z AUTO 02007KT 10SM CLR 22/05 A3026 RMK AO2 T02250052
KJSO 162015Z AUTO 34008KT 10SM CLR 21/05 A3028 RMK AO2 T02190053
KJSO 161955Z AUTO 01008KT 360V060 10SM CLR 22/05 A3028 RMK AO2 T02200053
KJSO 161935Z AUTO 02008KT 10SM CLR 21/05 A3029 RMK AO2 T02170057
KJSO 161915Z AUTO 36008KT 10SM CLR 21/05 A3030 RMK AO2 T02150048
KJSO 161835Z AUTO 02007KT 10SM CLR 21/06 A3033 RMK AO2 T02090061
KJSO 161815Z AUTO 03009KT 330V080 10SM CLR 20/06 A3034 RMK AO2 T02060060
KJSO 161755Z AUTO 05010G15KT 340V070 10SM CLR 20/06 A3035 RMK AO2 T02000063
KJSO 161735Z AUTO 01007KT 10SM CLR 19/06 A3036 RMK AO2 T01970066
KJSO 161715Z AUTO 05010G15KT 020V090 10SM CLR 19/06 A3037 RMK AO2 T01930067
KJSO 161655Z AUTO 03008KT 10SM CLR 18/06 A3037 RMK AO2 T01880066
KJSO 161635Z AUTO 05007KT 030V090 10SM CLR 18/07 A3038 RMK AO2 T01820074
KJSO 161615Z AUTO 05007KT 10SM CLR 17/07 A3038 RMK AO2 T01770074
KJSO 161555Z AUTO 05011G16KT 10SM CLR 17/07 A3039 RMK AO2 T01710074
KJSO 161535Z AUTO 05008KT 030V090 10SM CLR 16/07 A3039 RMK AO2 T01640076
KJSO 161515Z AUTO 04011G15KT 10SM CLR 15/07 A3039 RMK AO2 T01550075
KJSO 161455Z AUTO 04012G17KT 10SM CLR 15/07 A3038 RMK AO2 T01490072
KJSO 161435Z AUTO 04009G16KT 360V060 10SM CLR 13/07 A3038 RMK AO2 T01410070
KJSO 161415Z AUTO 04010G15KT 10SM CLR 13/07 A3037 RMK AO2 T01320071